sensor_id;sensor_type;location;lat;lon;timestamp;pressure;altitude;pressure_sealevel;temperature;humidity
113;BME280;45999;48.808;9.182;2023-05-08T00:01:54;98337.78;;;14.71;100.00
113;BME280;45999;48.808;9.182;2023-05-08T00:04:20;98338.34;;;14.73;100.00
113;BME280;45999;48.808;9.182;2023-05-08T00:06:46;98343.13;;;14.71;100.00
113;BME280;45999;48.808;9.182;2023-05-08T00:09:14;98337.19;;;14.69;100.00
113;BME280;45999;48.808;9.182;2023-05-08T00:11:40;98344.66;;;14.67;100.00
113;BME280;45999;48.808;9.182;2023-05-08T00:14:06;98342.41;;;14.75;100.00
113;BME280;45999;48.808;9.182;2023-05-08T00:16:33;98341.16;;;14.66;100.00
113;BME280;45999;48.808;9.182;2023-05-08T00:18:59;98341.06;;;14.61;100.00
113;BME280;45999;48.808;9.182;2023-05-08T00:21:26;98341.88;;;14.62;100.00
113;BME280;45999;48.808;9.182;2023-05-08T00:23:52;98340.03;;;14.62;100.00
113;BME280;45999;48.808;9.182;2023-05-08T00:26:18;98344.78;;;14.60;100.00
113;BME280;45999;48.808;9.182;2023-05-08T00:28:46;98352.81;;;14.60;100.00
113;BME280;45999;48.808;9.182;2023-05-08T00:31:12;98344.00;;;14.60;100.00
113;BME280;45999;48.808;9.182;2023-05-08T00:33:39;98346.53;;;14.55;100.00
113;BME280;45999;48.808;9.182;2023-05-08T00:36:06;98346.31;;;14.56;100.00
113;BME280;45999;48.808;9.182;2023-05-08T00:38:33;98342.94;;;14.61;100.00
113;BME280;45999;48.808;9.182;2023-05-08T00:41:00;98351.19;;;14.59;100.00
113;BME280;45999;48.808;9.182;2023-05-08T00:43:27;98345.84;;;14.59;100.00
113;BME280;45999;48.808;9.182;2023-05-08T00:46:00;98349.91;;;14.62;100.00
113;BME280;45999;48.808;9.182;2023-05-08T00:48:31;98352.34;;;14.63;100.00
113;BME280;45999;48.808;9.182;2023-05-08T00:50:59;98351.75;;;14.61;100.00
113;BME280;45999;48.808;9.182;2023-05-08T00:53:29;98347.00;;;14.63;100.00
113;BME280;45999;48.808;9.182;2023-05-08T00:55:58;98348.06;;;14.62;100.00
113;BME280;45999;48.808;9.182;2023-05-08T00:58:26;98354.94;;;14.58;100.00
113;BME280;45999;48.808;9.182;2023-05-08T01:00:54;98353.78;;;14.54;100.00
113;BME280;45999;48.808;9.182;2023-05-08T01:03:22;98353.78;;;14.54;100.00
113;BME280;45999;48.808;9.182;2023-05-08T01:05:48;98357.00;;;14.56;100.00
113;BME280;45999;48.808;9.182;2023-05-08T01:08:15;98360.28;;;14.58;100.00
113;BME280;45999;48.808;9.182;2023-05-08T01:10:47;98353.03;;;14.59;100.00
113;BME280;45999;48.808;9.182;2023-05-08T01:13:23;98362.72;;;14.60;100.00
113;BME280;45999;48.808;9.182;2023-05-08T01:16:06;98360.28;;;14.58;100.00
113;BME280;45999;48.808;9.182;2023-05-08T01:18:43;98363.53;;;14.60;100.00
113;BME280;45999;48.808;9.182;2023-05-08T01:27:24;98357.25;;;14.55;100.00
113;BME280;45999;48.808;9.182;2023-05-08T01:32:42;98360.19;;;14.53;100.00
113;BME280;45999;48.808;9.182;2023-05-08T01:35:20;98369.34;;;14.57;100.00
113;BME280;45999;48.808;9.182;2023-05-08T01:37:51;98362.03;;;14.53;100.00
113;BME280;45999;48.808;9.182;2023-05-08T01:43:28;98368.31;;;14.58;100.00
113;BME280;45999;48.808;9.182;2023-05-08T01:45:56;98365.63;;;14.58;100.00
113;BME280;45999;48.808;9.182;2023-05-08T01:48:30;98368.78;;;14.55;100.00
113;BME280;45999;48.808;9.182;2023-05-08T01:51:02;98376.22;;;14.53;100.00
113;BME280;45999;48.808;9.182;2023-05-08T01:53:35;98374.13;;;14.55;100.00
113;BME280;45999;48.808;9.182;2023-05-08T01:56:08;98369.69;;;14.61;100.00
113;BME280;45999;48.808;9.182;2023-05-08T01:58:36;98367.81;;;14.61;100.00
113;BME280;45999;48.808;9.182;2023-05-08T02:01:03;98372.72;;;14.64;100.00
113;BME280;45999;48.808;9.182;2023-05-08T02:03:32;98369.69;;;14.61;100.00
113;BME280;45999;48.808;9.182;2023-05-08T02:06:00;98377.50;;;14.62;100.00
113;BME280;45999;48.808;9.182;2023-05-08T02:08:28;98376.91;;;14.60;100.00
113;BME280;45999;48.808;9.182;2023-05-08T02:10:56;98373.06;;;14.56;100.00
113;BME280;45999;48.808;9.182;2023-05-08T02:13:24;98380.53;;;14.54;100.00
113;BME280;45999;48.808;9.182;2023-05-08T02:15:53;98373.56;;;14.53;100.00
113;BME280;45999;48.808;9.182;2023-05-08T02:18:20;98374.34;;;14.54;100.00
113;BME280;45999;48.808;9.182;2023-05-08T02:20:50;98386.09;;;14.53;100.00
113;BME280;45999;48.808;9.182;2023-05-08T02:23:18;98375.88;;;14.50;100.00
113;BME280;45999;48.808;9.182;2023-05-08T02:25:46;98370.28;;;14.51;100.00
113;BME280;45999;48.808;9.182;2023-05-08T02:28:14;98374.03;;;14.50;100.00
113;BME280;45999;48.808;9.182;2023-05-08T02:30:42;98375.31;;;14.48;100.00
113;BME280;45999;48.808;9.182;2023-05-08T02:33:11;98378.66;;;14.55;100.00
113;BME280;45999;48.808;9.182;2023-05-08T02:35:39;98379.38;;;14.50;100.00
113;BME280;45999;48.808;9.182;2023-05-08T02:38:07;98388.44;;;14.49;100.00
113;BME280;45999;48.808;9.182;2023-05-08T02:40:36;98386.00;;;14.48;100.00
113;BME280;45999;48.808;9.182;2023-05-08T02:43:04;98383.56;;;14.46;100.00
113;BME280;45999;48.808;9.182;2023-05-08T02:45:37;98384.03;;;14.43;100.00
113;BME280;45999;48.808;9.182;2023-05-08T02:48:12;98377.88;;;14.43;100.00
113;BME280;45999;48.808;9.182;2023-05-08T02:53:47;98383.56;;;14.46;100.00
113;BME280;45999;48.808;9.182;2023-05-08T02:59:30;98389.47;;;14.48;100.00
113;BME280;45999;48.808;9.182;2023-05-08T03:02:13;98387.53;;;14.44;100.00
113;BME280;45999;48.808;9.182;2023-05-08T03:04:48;98385.53;;;14.51;100.00
113;BME280;45999;48.808;9.182;2023-05-08T03:07:18;98380.31;;;14.44;100.00
113;BME280;45999;48.808;9.182;2023-05-08T03:09:49;98384.97;;;14.37;100.00
113;BME280;45999;48.808;9.182;2023-05-08T03:12:22;98376.25;;;14.30;100.00
113;BME280;45999;48.808;9.182;2023-05-08T03:14:58;98382.53;;;14.36;100.00
113;BME280;45999;48.808;9.182;2023-05-08T03:17:27;98379.50;;;14.32;100.00
113;BME280;45999;48.808;9.182;2023-05-08T03:19:59;98377.66;;;14.33;100.00
113;BME280;45999;48.808;9.182;2023-05-08T03:22:29;98378.47;;;14.33;100.00
113;BME280;45999;48.808;9.182;2023-05-08T03:24:58;98372.66;;;14.36;100.00
113;BME280;45999;48.808;9.182;2023-05-08T03:27:28;98376.63;;;14.34;100.00
113;BME280;45999;48.808;9.182;2023-05-08T03:29:55;98376.94;;;14.37;100.00
113;BME280;45999;48.808;9.182;2023-05-08T03:32:25;98377.91;;;14.31;100.00
113;BME280;45999;48.808;9.182;2023-05-08T03:34:54;98379.28;;;14.34;100.00
113;BME280;45999;48.808;9.182;2023-05-08T03:37:20;98385.09;;;14.31;100.00
113;BME280;45999;48.808;9.182;2023-05-08T03:39:47;98376.13;;;14.25;100.00
113;BME280;45999;48.808;9.182;2023-05-08T03:42:13;98376.97;;;14.26;100.00
113;BME280;45999;48.808;9.182;2023-05-08T03:44:48;98378.69;;;14.32;100.00
113;BME280;45999;48.808;9.182;2023-05-08T03:47:16;98379.41;;;14.27;100.00
113;BME280;45999;48.808;9.182;2023-05-08T03:49:47;98384.53;;;14.29;100.00
113;BME280;45999;48.808;9.182;2023-05-08T03:52:15;98383.69;;;14.28;100.00
113;BME280;45999;48.808;9.182;2023-05-08T03:54:41;98385.31;;;14.29;100.00
113;BME280;45999;48.808;9.182;2023-05-08T03:57:09;98380.91;;;14.35;100.00
113;BME280;45999;48.808;9.182;2023-05-08T04:02:37;98386.38;;;14.28;100.00
113;BME280;45999;48.808;9.182;2023-05-08T04:07:47;98387.88;;;14.24;100.00
113;BME280;45999;48.808;9.182;2023-05-08T04:10:23;98384.16;;;14.25;100.00
113;BME280;45999;48.808;9.182;2023-05-08T04:13:02;98387.44;;;14.27;100.00
113;BME280;45999;48.808;9.182;2023-05-08T04:15:33;98394.63;;;14.27;100.00
113;BME280;45999;48.808;9.182;2023-05-08T04:18:12;98401.38;;;14.29;100.00
113;BME280;45999;48.808;9.182;2023-05-08T04:20:41;98408.00;;;14.27;100.00
113;BME280;45999;48.808;9.182;2023-05-08T04:23:13;98405.56;;;14.25;100.00
113;BME280;45999;48.808;9.182;2023-05-08T04:25:43;98411.72;;;14.26;100.00
113;BME280;45999;48.808;9.182;2023-05-08T04:28:10;98410.09;;;14.25;100.00
113;BME280;45999;48.808;9.182;2023-05-08T04:30:38;98408.59;;;14.29;100.00
113;BME280;45999;48.808;9.182;2023-05-08T04:33:06;98410.91;;;14.25;100.00
113;BME280;45999;48.808;9.182;2023-05-08T04:35:33;98412.06;;;14.29;100.00
113;BME280;45999;48.808;9.182;2023-05-08T04:37:59;98417.66;;;14.28;100.00
113;BME280;45999;48.808;9.182;2023-05-08T04:40:25;98413.94;;;14.29;100.00
113;BME280;45999;48.808;9.182;2023-05-08T04:42:52;98418.00;;;14.31;100.00
113;BME280;45999;48.808;9.182;2023-05-08T04:45:18;98415.44;;;14.36;100.00
113;BME280;45999;48.808;9.182;2023-05-08T04:47:45;98417.28;;;14.36;100.00
113;BME280;45999;48.808;9.182;2023-05-08T04:50:11;98422.88;;;14.34;100.00
113;BME280;45999;48.808;9.182;2023-05-08T04:52:38;98418.25;;;14.30;100.00
113;BME280;45999;48.808;9.182;2023-05-08T04:55:04;98422.53;;;14.31;100.00
113;BME280;45999;48.808;9.182;2023-05-08T04:57:32;98420.31;;;14.39;100.00
113;BME280;45999;48.808;9.182;2023-05-08T04:59:58;98420.78;;;14.36;100.00
113;BME280;45999;48.808;9.182;2023-05-08T05:02:25;98423.38;;;14.31;100.00
113;BME280;45999;48.808;9.182;2023-05-08T05:04:51;98422.88;;;14.34;100.00
113;BME280;45999;48.808;9.182;2023-05-08T05:07:18;98427.88;;;14.31;100.00
113;BME280;45999;48.808;9.182;2023-05-08T05:09:44;98429.50;;;14.32;100.00
113;BME280;45999;48.808;9.182;2023-05-08T05:12:10;98432.88;;;14.39;100.00
113;BME280;45999;48.808;9.182;2023-05-08T05:14:37;98437.19;;;14.40;100.00
113;BME280;45999;48.808;9.182;2023-05-08T05:17:03;98435.91;;;14.42;100.00
113;BME280;45999;48.808;9.182;2023-05-08T05:19:30;98439.19;;;14.44;100.00
113;BME280;45999;48.808;9.182;2023-05-08T05:21:56;98437.53;;;14.43;100.00
113;BME280;45999;48.808;9.182;2023-05-08T05:24:24;98438.81;;;14.41;100.00
113;BME280;45999;48.808;9.182;2023-05-08T05:26:50;98441.47;;;14.41;100.00
113;BME280;45999;48.808;9.182;2023-05-08T05:29:16;98444.38;;;14.39;100.00
113;BME280;45999;48.808;9.182;2023-05-08T05:31:43;98437.41;;;14.38;100.00
113;BME280;45999;48.808;9.182;2023-05-08T05:34:09;98445.78;;;14.30;100.00
113;BME280;45999;48.808;9.182;2023-05-08T05:36:35;98445.66;;;14.37;100.00
113;BME280;45999;48.808;9.182;2023-05-08T05:39:02;98448.72;;;14.40;100.00
113;BME280;45999;48.808;9.182;2023-05-08T05:41:28;98442.66;;;14.33;100.00
113;BME280;45999;48.808;9.182;2023-05-08T05:43:55;98450.91;;;14.32;100.00
113;BME280;45999;48.808;9.182;2023-05-08T05:46:21;98447.22;;;14.33;100.00
113;BME280;45999;48.808;9.182;2023-05-08T05:48:52;98458.69;;;14.33;100.00
113;BME280;45999;48.808;9.182;2023-05-08T05:51:18;98454.63;;;14.31;100.00
113;BME280;45999;48.808;9.182;2023-05-08T05:53:44;98449.28;;;14.31;100.00
113;BME280;45999;48.808;9.182;2023-05-08T05:56:11;98450.44;;;14.35;100.00
113;BME280;45999;48.808;9.182;2023-05-08T05:58:37;98454.97;;;14.34;100.00
113;BME280;45999;48.808;9.182;2023-05-08T06:01:04;98448.81;;;14.34;100.00
113;BME280;45999;48.808;9.182;2023-05-08T06:03:30;98457.66;;;14.34;100.00
113;BME280;45999;48.808;9.182;2023-05-08T06:05:57;98452.28;;;14.34;100.00
113;BME280;45999;48.808;9.182;2023-05-08T06:08:24;98455.69;;;14.30;100.00
113;BME280;45999;48.808;9.182;2023-05-08T06:10:51;98454.97;;;14.34;100.00
113;BME280;45999;48.808;9.182;2023-05-08T06:13:17;98461.97;;;14.35;100.00
113;BME280;45999;48.808;9.182;2023-05-08T06:15:44;98464.66;;;14.35;100.00
113;BME280;45999;48.808;9.182;2023-05-08T06:18:10;98454.50;;;14.37;100.00
113;BME280;45999;48.808;9.182;2023-05-08T06:20:37;98459.63;;;14.39;100.00
113;BME280;45999;48.808;9.182;2023-05-08T06:23:04;98459.63;;;14.39;100.00
113;BME280;45999;48.808;9.182;2023-05-08T06:25:30;98458.25;;;14.36;100.00
113;BME280;45999;48.808;9.182;2023-05-08T06:27:57;98458.81;;;14.38;100.00
113;BME280;45999;48.808;9.182;2023-05-08T06:30:23;98461.25;;;14.40;100.00
113;BME280;45999;48.808;9.182;2023-05-08T06:32:50;98458.34;;;14.41;100.00
113;BME280;45999;48.808;9.182;2023-05-08T06:35:16;98461.59;;;14.43;100.00
113;BME280;45999;48.808;9.182;2023-05-08T06:37:44;98465.56;;;14.41;100.00
113;BME280;45999;48.808;9.182;2023-05-08T06:40:11;98461.97;;;14.47;100.00
113;BME280;45999;48.808;9.182;2023-05-08T06:42:38;98471.03;;;14.46;100.00
113;BME280;45999;48.808;9.182;2023-05-08T06:45:05;98471.03;;;14.46;100.00
113;BME280;45999;48.808;9.182;2023-05-08T06:47:32;98469.72;;;14.48;100.00
113;BME280;45999;48.808;9.182;2023-05-08T06:49:59;98471.97;;;14.51;100.00
113;BME280;45999;48.808;9.182;2023-05-08T06:52:26;98471.28;;;14.56;100.00
113;BME280;45999;48.808;9.182;2023-05-08T06:54:52;98468.69;;;14.61;100.00
113;BME280;45999;48.808;9.182;2023-05-08T06:57:18;98480.78;;;14.63;100.00
113;BME280;45999;48.808;9.182;2023-05-08T06:59:45;98474.75;;;14.56;100.00
113;BME280;45999;48.808;9.182;2023-05-08T07:02:11;98474.75;;;14.56;100.00
113;BME280;45999;48.808;9.182;2023-05-08T07:04:38;98476.13;;;14.59;100.00
113;BME280;45999;48.808;9.182;2023-05-08T07:07:04;98476.25;;;14.64;100.00
113;BME280;45999;48.808;9.182;2023-05-08T07:09:31;98472.66;;;14.58;100.00
113;BME280;45999;48.808;9.182;2023-05-08T07:11:58;98478.59;;;14.60;100.00
113;BME280;45999;48.808;9.182;2023-05-08T07:14:24;98482.88;;;14.61;100.00
113;BME280;45999;48.808;9.182;2023-05-08T07:16:51;98486.50;;;14.67;100.00
113;BME280;45999;48.808;9.182;2023-05-08T07:19:17;98488.13;;;14.68;100.00
113;BME280;45999;48.808;9.182;2023-05-08T07:21:44;98493.34;;;14.74;100.00
113;BME280;45999;48.808;9.182;2023-05-08T07:24:11;98484.25;;;14.75;100.00
113;BME280;45999;48.808;9.182;2023-05-08T07:26:37;98482.75;;;14.79;100.00
113;BME280;45999;48.808;9.182;2023-05-08T07:29:04;98483.78;;;14.78;100.00
113;BME280;45999;48.808;9.182;2023-05-08T07:31:30;98486.34;;;14.85;100.00
113;BME280;45999;48.808;9.182;2023-05-08T07:33:56;98488.66;;;14.93;100.00
113;BME280;45999;48.808;9.182;2023-05-08T07:36:23;98486.78;;;14.93;100.00
113;BME280;45999;48.808;9.182;2023-05-08T07:38:49;98491.34;;;14.93;100.00
113;BME280;45999;48.808;9.182;2023-05-08T07:41:15;98495.41;;;14.95;100.00
113;BME280;45999;48.808;9.182;2023-05-08T07:43:42;98494.78;;;15.05;100.00
113;BME280;45999;48.808;9.182;2023-05-08T07:46:15;98499.28;;;15.27;100.00
113;BME280;45999;48.808;9.182;2023-05-08T07:48:41;98495.13;;;15.20;100.00
113;BME280;45999;48.808;9.182;2023-05-08T07:51:08;98498.13;;;15.23;100.00
113;BME280;45999;48.808;9.182;2023-05-08T07:53:36;98499.75;;;15.24;100.00
113;BME280;45999;48.808;9.182;2023-05-08T07:56:02;98501.63;;;15.24;100.00
113;BME280;45999;48.808;9.182;2023-05-08T07:58:30;98498.13;;;15.23;100.00
113;BME280;45999;48.808;9.182;2023-05-08T08:00:56;98497.94;;;15.13;100.00
113;BME280;45999;48.808;9.182;2023-05-08T08:03:22;98494.66;;;15.11;100.00
113;BME280;45999;48.808;9.182;2023-05-08T08:05:49;98499.00;;;15.12;100.00
113;BME280;45999;48.808;9.182;2023-05-08T08:08:15;98506.47;;;14.99;100.00
113;BME280;45999;48.808;9.182;2023-05-08T08:10:41;98497.72;;;15.03;100.00
113;BME280;45999;48.808;9.182;2023-05-08T08:13:08;98502.59;;;15.06;100.00
113;BME280;45999;48.808;9.182;2023-05-08T08:15:34;98498.88;;;15.07;100.00
113;BME280;45999;48.808;9.182;2023-05-08T08:18:00;98504.78;;;15.21;100.00
113;BME280;45999;48.808;9.182;2023-05-08T08:20:27;98505.03;;;15.08;100.00
113;BME280;45999;48.808;9.182;2023-05-08T08:22:53;98505.88;;;15.08;100.00
113;BME280;45999;48.808;9.182;2023-05-08T08:25:20;98508.31;;;15.10;100.00
113;BME280;45999;48.808;9.182;2023-05-08T08:27:46;98509.22;;;15.15;100.00
113;BME280;45999;48.808;9.182;2023-05-08T08:30:12;98508.75;;;15.18;100.00
113;BME280;45999;48.808;9.182;2023-05-08T08:32:39;98517.59;;;15.19;100.00
113;BME280;45999;48.808;9.182;2023-05-08T08:35:05;98511.53;;;15.23;100.00
113;BME280;45999;48.808;9.182;2023-05-08T08:37:32;98511.84;;;15.27;100.00
113;BME280;45999;48.808;9.182;2023-05-08T08:39:59;98509.41;;;15.25;100.00
113;BME280;45999;48.808;9.182;2023-05-08T08:42:25;98521.88;;;15.31;100.00
113;BME280;45999;48.808;9.182;2023-05-08T08:44:52;98512.69;;;15.39;100.00
113;BME280;45999;48.808;9.182;2023-05-08T08:47:21;98510.69;;;15.34;100.00
113;BME280;45999;48.808;9.182;2023-05-08T08:49:54;98513.50;;;15.39;100.00
113;BME280;45999;48.808;9.182;2023-05-08T08:52:31;98513.09;;;15.47;100.00
113;BME280;45999;48.808;9.182;2023-05-08T08:55:05;98517.13;;;15.61;100.00
113;BME280;45999;48.808;9.182;2023-05-08T08:57:35;98519.09;;;15.66;100.00
113;BME280;45999;48.808;9.182;2023-05-08T09:00:02;98518.78;;;15.62;100.00
113;BME280;45999;48.808;9.182;2023-05-08T09:02:30;98523.03;;;15.75;100.00
113;BME280;45999;48.808;9.182;2023-05-08T09:04:57;98526.41;;;15.70;100.00
113;BME280;45999;48.808;9.182;2023-05-08T09:07:24;98520.91;;;15.77;100.00
113;BME280;45999;48.808;9.182;2023-05-08T09:09:51;98530.75;;;15.71;100.00
113;BME280;45999;48.808;9.182;2023-05-08T09:12:18;98527.38;;;15.64;100.00
113;BME280;45999;48.808;9.182;2023-05-08T09:14:45;98515.97;;;15.85;100.00
113;BME280;45999;48.808;9.182;2023-05-08T09:17:11;98526.25;;;15.77;100.00
113;BME280;45999;48.808;9.182;2023-05-08T09:19:38;98523.72;;;15.70;100.00
113;BME280;45999;48.808;9.182;2023-05-08T09:22:05;98520.09;;;15.76;100.00
113;BME280;45999;48.808;9.182;2023-05-08T09:24:55;98518.19;;;15.60;100.00
113;BME280;45999;48.808;9.182;2023-05-08T09:27:24;98520.56;;;15.73;100.00
113;BME280;45999;48.808;9.182;2023-05-08T09:30:07;98524.41;;;15.77;100.00
113;BME280;45999;48.808;9.182;2023-05-08T09:32:36;98525.16;;;15.89;100.00
113;BME280;45999;48.808;9.182;2023-05-08T09:35:04;98528.75;;;15.95;100.00
113;BME280;45999;48.808;9.182;2023-05-08T09:37:31;98524.38;;;16.05;100.00
113;BME280;45999;48.808;9.182;2023-05-08T09:40:20;98525.75;;;16.24;100.00
113;BME280;45999;48.808;9.182;2023-05-08T09:42:48;98529.53;;;16.40;100.00
113;BME280;45999;48.808;9.182;2023-05-08T09:45:25;98523.00;;;16.19;100.00
113;BME280;45999;48.808;9.182;2023-05-08T09:47:52;98527.81;;;16.17;100.00
113;BME280;45999;48.808;9.182;2023-05-08T09:50:19;98533.13;;;16.45;100.00
113;BME280;45999;48.808;9.182;2023-05-08T09:52:46;98526.84;;;16.40;100.00
113;BME280;45999;48.808;9.182;2023-05-08T09:55:13;98528.31;;;16.47;100.00
113;BME280;45999;48.808;9.182;2023-05-08T09:57:54;98528.66;;;16.51;100.00
113;BME280;45999;48.808;9.182;2023-05-08T10:00:22;98527.66;;;16.57;100.00
113;BME280;45999;48.808;9.182;2023-05-08T10:03:00;98527.06;;;16.38;100.00
113;BME280;45999;48.808;9.182;2023-05-08T10:05:29;98532.22;;;16.40;100.00
113;BME280;45999;48.808;9.182;2023-05-08T10:08:16;98526.19;;;16.33;100.00
113;BME280;45999;48.808;9.182;2023-05-08T10:10:43;98522.16;;;16.47;100.00
113;BME280;45999;48.808;9.182;2023-05-08T10:13:09;98521.22;;;16.25;100.00
113;BME280;45999;48.808;9.182;2023-05-08T10:15:37;98526.75;;;16.35;100.00
113;BME280;45999;48.808;9.182;2023-05-08T10:18:05;98528.13;;;16.21;100.00
113;BME280;45999;48.808;9.182;2023-05-08T10:20:34;98525.38;;;16.32;100.00
113;BME280;45999;48.808;9.182;2023-05-08T10:23:02;98529.97;;;16.48;100.00
113;BME280;45999;48.808;9.182;2023-05-08T10:25:31;98527.84;;;16.50;100.00
113;BME280;45999;48.808;9.182;2023-05-08T10:30:49;98534.78;;;16.68;100.00
113;BME280;45999;48.808;9.182;2023-05-08T10:33:19;98527.94;;;16.93;100.00
113;BME280;45999;48.808;9.182;2023-05-08T10:35:47;98525.91;;;16.84;100.00
113;BME280;45999;48.808;9.182;2023-05-08T10:38:15;98530.13;;;16.96;100.00
113;BME280;45999;48.808;9.182;2023-05-08T10:40:41;98525.88;;;17.00;100.00
113;BME280;45999;48.808;9.182;2023-05-08T10:43:08;98526.94;;;16.99;100.00
113;BME280;45999;48.808;9.182;2023-05-08T10:45:36;98530.34;;;17.11;100.00
113;BME280;45999;48.808;9.182;2023-05-08T10:51:04;98531.44;;;17.15;100.00
113;BME280;45999;48.808;9.182;2023-05-08T10:53:54;98521.75;;;17.14;100.00
113;BME280;45999;48.808;9.182;2023-05-08T10:56:26;98525.38;;;17.03;100.00
113;BME280;45999;48.808;9.182;2023-05-08T10:58:56;98528.09;;;17.25;100.00
113;BME280;45999;48.808;9.182;2023-05-08T11:01:24;98519.50;;;17.06;100.00
113;BME280;45999;48.808;9.182;2023-05-08T11:03:51;98523.31;;;17.10;100.00
113;BME280;45999;48.808;9.182;2023-05-08T11:06:45;98521.34;;;17.22;100.00
113;BME280;45999;48.808;9.182;2023-05-08T11:09:27;98518.81;;;17.59;100.00
113;BME280;45999;48.808;9.182;2023-05-08T11:12:18;98521.44;;;17.32;100.00
113;BME280;45999;48.808;9.182;2023-05-08T11:14:54;98519.44;;;17.39;100.00
113;BME280;45999;48.808;9.182;2023-05-08T11:17:23;98519.72;;;17.43;100.00
113;BME280;45999;48.808;9.182;2023-05-08T11:19:55;98519.97;;;17.41;100.00
113;BME280;45999;48.808;9.182;2023-05-08T11:22:27;98519.66;;;17.59;100.00
113;BME280;45999;48.808;9.182;2023-05-08T11:25:15;98520.91;;;17.52;100.00
113;BME280;45999;48.808;9.182;2023-05-08T11:30:24;98512.66;;;17.58;100.00
113;BME280;45999;48.808;9.182;2023-05-08T11:38:34;98509.75;;;17.91;100.00
113;BME280;45999;48.808;9.182;2023-05-08T11:41:06;98512.75;;;18.21;100.00
113;BME280;45999;48.808;9.182;2023-05-08T11:49:14;98509.97;;;18.11;100.00
113;BME280;45999;48.808;9.182;2023-05-08T11:51:43;98504.31;;;18.13;100.00
113;BME280;45999;48.808;9.182;2023-05-08T11:54:16;98494.38;;;18.13;100.00
113;BME280;45999;48.808;9.182;2023-05-08T11:56:44;98494.69;;;18.22;100.00
113;BME280;45999;48.808;9.182;2023-05-08T11:59:11;98501.84;;;18.74;100.00
113;BME280;45999;48.808;9.182;2023-05-08T12:01:38;98499.50;;;18.88;100.00
113;BME280;45999;48.808;9.182;2023-05-08T12:04:09;98502.16;;;18.78;100.00
113;BME280;45999;48.808;9.182;2023-05-08T12:06:39;98501.84;;;18.74;100.00
113;BME280;45999;48.808;9.182;2023-05-08T12:09:13;98499.09;;;18.64;100.00
113;BME280;45999;48.808;9.182;2023-05-08T12:11:40;98491.25;;;19.09;100.00
113;BME280;45999;48.808;9.182;2023-05-08T12:14:08;98500.94;;;19.05;100.00
113;BME280;45999;48.808;9.182;2023-05-08T12:16:36;98499.59;;;19.08;100.00
113;BME280;45999;48.808;9.182;2023-05-08T12:19:03;98491.59;;;19.18;100.00
113;BME280;45999;48.808;9.182;2023-05-08T12:21:30;98495.19;;;19.38;100.00
113;BME280;45999;48.808;9.182;2023-05-08T12:23:56;98493.53;;;19.27;100.00
113;BME280;45999;48.808;9.182;2023-05-08T12:26:23;98499.25;;;18.89;100.00
113;BME280;45999;48.808;9.182;2023-05-08T12:28:55;98493.41;;;19.07;100.00
113;BME280;45999;48.808;9.182;2023-05-08T12:31:22;98497.75;;;19.13;100.00
113;BME280;45999;48.808;9.182;2023-05-08T12:33:49;98491.72;;;18.96;100.00
113;BME280;45999;48.808;9.182;2023-05-08T12:36:15;98490.69;;;19.02;100.00
113;BME280;45999;48.808;9.182;2023-05-08T12:38:42;98497.44;;;19.00;100.00
113;BME280;45999;48.808;9.182;2023-05-08T12:41:08;98491.56;;;18.66;100.00
113;BME280;45999;48.808;9.182;2023-05-08T12:43:36;98492.53;;;18.92;100.00
113;BME280;45999;48.808;9.182;2023-05-08T12:46:03;98492.75;;;18.85;100.00
113;BME280;45999;48.808;9.182;2023-05-08T12:48:30;98492.34;;;19.08;100.00
113;BME280;45999;48.808;9.182;2023-05-08T12:51:02;98489.38;;;19.05;100.00
113;BME280;45999;48.808;9.182;2023-05-08T12:53:30;98487.22;;;19.07;100.00
113;BME280;45999;48.808;9.182;2023-05-08T12:56:00;98490.13;;;18.95;100.00
113;BME280;45999;48.808;9.182;2023-05-08T12:58:29;98482.28;;;18.94;100.00
113;BME280;45999;48.808;9.182;2023-05-08T13:01:22;98483.56;;;19.28;100.00
113;BME280;45999;48.808;9.182;2023-05-08T13:03:51;98489.03;;;18.96;100.00
113;BME280;45999;48.808;9.182;2023-05-08T13:06:19;98491.72;;;18.96;100.00
113;BME280;45999;48.808;9.182;2023-05-08T13:08:52;98493.09;;;19.04;100.00
113;BME280;45999;48.808;9.182;2023-05-08T13:11:27;98491.00;;;18.64;100.00
113;BME280;45999;48.808;9.182;2023-05-08T13:13:55;98485.81;;;18.99;100.00
113;BME280;45999;48.808;9.182;2023-05-08T13:16:21;98478.19;;;18.40;100.00
113;BME280;45999;48.808;9.182;2023-05-08T13:18:47;98468.78;;;18.11;100.00
113;BME280;45999;48.808;9.182;2023-05-08T13:21:14;98483.84;;;18.38;100.00
113;BME280;45999;48.808;9.182;2023-05-08T13:23:40;98470.19;;;18.50;100.00
113;BME280;45999;48.808;9.182;2023-05-08T13:26:07;98479.44;;;18.32;100.00
113;BME280;45999;48.808;9.182;2023-05-08T13:28:34;98484.25;;;17.67;100.00
113;BME280;45999;48.808;9.182;2023-05-08T13:31:00;98478.38;;;17.70;100.00
113;BME280;45999;48.808;9.182;2023-05-08T13:33:26;98478.56;;;17.64;100.00
113;BME280;45999;48.808;9.182;2023-05-08T13:35:53;98475.47;;;17.50;100.00
113;BME280;45999;48.808;9.182;2023-05-08T13:38:20;98480.72;;;17.40;100.00
113;BME280;45999;48.808;9.182;2023-05-08T13:40:46;98467.69;;;17.32;100.00
113;BME280;45999;48.808;9.182;2023-05-08T13:43:12;98459.47;;;17.17;100.00
113;BME280;45999;48.808;9.182;2023-05-08T13:45:39;98454.53;;;17.09;100.00
113;BME280;45999;48.808;9.182;2023-05-08T13:48:05;98450.13;;;16.98;100.00
113;BME280;45999;48.808;9.182;2023-05-08T13:50:32;98449.66;;;16.85;100.00
113;BME280;45999;48.808;9.182;2023-05-08T13:52:58;98453.41;;;17.05;100.00
113;BME280;45999;48.808;9.182;2023-05-08T13:55:24;98450.66;;;17.00;100.00
113;BME280;45999;48.808;9.182;2023-05-08T13:57:51;98454.19;;;17.01;100.00
113;BME280;45999;48.808;9.182;2023-05-08T14:00:17;98452.28;;;17.23;100.00
113;BME280;45999;48.808;9.182;2023-05-08T14:02:44;98458.84;;;17.10;100.00